Kamikawa Maru — JG5687 — position and weather

sailwx.info

Track history (hours):
 
Tides and Currents Weather Stations Pressure Air Temp Water Temp Dewpoint Dewpoint Depression Visibility Wind Speed Wind Dir Waves Ship Positions

Kamikawa Maru

Last reported at 2016-Feb-09 15:32 UTC. Time now 2016-Feb-10 17:44 UTC.
Position N 35°18' E 140°40'.

Length 162 m; draft 6.8 m.

Type: Cargo ship. MMSI: 431101012.

Date/timePositionNaut miles runAvg speedWind from/ knotsBaromVisibWave heightAir tempDewpointWater temp
2016-Feb-09 15:32N 35°18' E 140°40'1918.9
2016-Feb-09 14:33N 35°05' E 140°25'2121.1
2016-Feb-09 13:33N 34°55' E 140°02'1616.1
2016-Feb-09 12:33N 34°58' E 139°43'1817.9
2016-Feb-09 11:33N 35°16' E 139°46'1413.9
2016-Feb-09 10:33N 35°29' E 139°50'10 9.6
2016-Feb-09 09:33N 35°38' E 139°46'0 0.0
2016-Feb-09 08:33N 35°38' E 139°46'0 0.0
2016-Feb-09 07:33N 35°38' E 139°46'0 0.0
2016-Feb-09 06:24N 35°38' E 139°46'0 0.1
2016-Feb-09 05:33N 35°38' E 139°46'0 0.0
2016-Feb-09 04:33N 35°38' E 139°46'0 0.0
2016-Feb-09 03:33N 35°38' E 139°46'0 0.0
2016-Feb-09 02:30N 35°38' E 139°46'0 0.1
2016-Feb-09 01:33N 35°38' E 139°46'0 0.0
2016-Feb-09 00:30N 35°38' E 139°46'0 0.0
2016-Feb-08 23:33N 35°38' E 139°46'1111.2
2016-Feb-08 22:34N 35°27' E 139°50'1211.8
2016-Feb-08 21:33N 35°16' E 139°47'1515.0
2016-Feb-08 20:33N 35°02' E 139°40'9 0.2
2016-Feb-07 06:29N 34°58' E 139°29'1819.0
2016-Feb-07 05:33N 35°10' E 139°45'1313.1
2016-Feb-07 04:33N 35°23' E 139°42'1413.7
2016-Feb-07 03:33N 35°37' E 139°46'1 1.1
2016-Feb-07 02:31N 35°38' E 139°46'0 0.0
2016-Feb-07 01:25N 35°38' E 139°46'0 0.0
2016-Feb-07 00:31N 35°38' E 139°46'0 0.0
2016-Feb-06 23:33N 35°38' E 139°46'1211.5
2016-Feb-06 22:33N 35°27' E 139°49'1111.1
2016-Feb-06 21:33N 35°16' E 139°47'1515.2
2016-Feb-06 20:34N 35°01' E 139°43'1514.1
2016-Feb-06 19:31N 34°51' E 139°56'1717.9
2016-Feb-06 18:33N 35°00' E 140°14'1818.3
2016-Feb-06 17:33N 35°10' E 140°33'2418.3
2016-Feb-06 16:13N 35°31' E 140°49'  
2016-Feb-02 15:33N 35°18' E 140°41'2019.7
2016-Feb-02 14:33N 35°04' E 140°23'1919.5
2016-Feb-02 13:33N 34°55' E 140°03'1616.4
2016-Feb-02 12:33N 34°57' E 139°43'1817.8
2016-Feb-02 11:34N 35°15' E 139°46'1212.2
2016-Feb-02 10:33N 35°27' E 139°48'1111.4
2016-Feb-02 09:34N 35°38' E 139°46'0 0.0
2016-Feb-02 08:33N 35°38' E 139°46'0 0.0
2016-Feb-02 07:24N 35°38' E 139°46'0 0.1
2016-Feb-02 06:30N 35°38' E 139°46'0 0.0
2016-Feb-02 05:30N 35°38' E 139°46'0 0.0
2016-Feb-02 04:09N 35°38' E 139°46'0 0.1
2016-Feb-02 03:27N 35°38' E 139°46'0 0.1
2016-Feb-02 02:30N 35°38' E 139°46'0 0.0
2016-Feb-02 01:30N 35°38' E 139°46'0 0.0
2016-Feb-02 00:33N 35°38' E 139°46'0 0.1
2016-Feb-01 23:33N 35°38' E 139°46'1211.8
2016-Feb-01 22:33N 35°26' E 139°49'1111.1
2016-Feb-01 21:34N 35°16' E 139°47'1615.5
2016-Feb-01 20:34N 35°01' E 139°41'6816.8
2016-Feb-01 16:29N 34°27' E 138°29'59 1.7
2016-Jan-31 06:33N 34°58' E 139°29'1918.7
2016-Jan-31 05:33N 35°11' E 139°45'1413.7
2016-Jan-31 04:33N 35°25' E 139°44'1312.9
2016-Jan-31 03:34N 35°38' E 139°46'0 0.2
2016-Jan-31 02:30N 35°38' E 139°46'0 0.0
2016-Jan-31 01:33N 35°38' E 139°46'0 0.0
2016-Jan-31 00:33N 35°38' E 139°46'0 0.1
2016-Jan-30 23:33N 35°38' E 139°46'1211.7
2016-Jan-30 22:33N 35°27' E 139°49'1211.5
2016-Jan-30 21:33N 35°15' E 139°47'1716.6
2016-Jan-30 20:33N 34°59' E 139°41'1716.5
2016-Jan-30 19:30N 34°47' E 139°56'1717.9
2016-Jan-30 18:33N 34°57' E 140°13'1918.0
2016-Jan-30 17:31N 35°10' E 140°30'1818.2
2016-Jan-30 16:32N 35°24' E 140°43'1818.4
2016-Jan-30 15:34N 35°39' E 140°54'  
Track history (hours):
 
Tides and Currents Weather Stations Pressure Air Temp Water Temp Dewpoint Dewpoint Depression Visibility Wind Speed Wind Dir Waves Ship Positions

Kamikawa Maru

Last reported at 2016-Feb-09 15:32 UTC. Time now 2016-Feb-10 17:44 UTC.
Position N 35°18' E 140°40'.

Length 162 m; draft 6.8 m.

Type: Cargo ship. MMSI: 431101012.

Date/timePositionNaut miles runAvg speedWind from/ knotsBaromVisibWave heightAir tempDewpointWater temp
2016-Feb-09 15:32N 35°18' E 140°40'1918.9
2016-Feb-09 14:33N 35°05' E 140°25'2121.1
2016-Feb-09 13:33N 34°55' E 140°02'1616.1
2016-Feb-09 12:33N 34°58' E 139°43'1817.9
2016-Feb-09 11:33N 35°16' E 139°46'1413.9
2016-Feb-09 10:33N 35°29' E 139°50'10 9.6
2016-Feb-09 09:33N 35°38' E 139°46'0 0.0
2016-Feb-09 08:33N 35°38' E 139°46'0 0.0
2016-Feb-09 07:33N 35°38' E 139°46'0 0.0
2016-Feb-09 06:24N 35°38' E 139°46'0 0.1
2016-Feb-09 05:33N 35°38' E 139°46'0 0.0
2016-Feb-09 04:33N 35°38' E 139°46'0 0.0
2016-Feb-09 03:33N 35°38' E 139°46'0 0.0
2016-Feb-09 02:30N 35°38' E 139°46'0 0.1
2016-Feb-09 01:33N 35°38' E 139°46'0 0.0
2016-Feb-09 00:30N 35°38' E 139°46'0 0.0
2016-Feb-08 23:33N 35°38' E 139°46'1111.2
2016-Feb-08 22:34N 35°27' E 139°50'1211.8
2016-Feb-08 21:33N 35°16' E 139°47'1515.0
2016-Feb-08 20:33N 35°02' E 139°40'9 0.2
2016-Feb-07 06:29N 34°58' E 139°29'1819.0
2016-Feb-07 05:33N 35°10' E 139°45'1313.1
2016-Feb-07 04:33N 35°23' E 139°42'1413.7
2016-Feb-07 03:33N 35°37' E 139°46'1 1.1
2016-Feb-07 02:31N 35°38' E 139°46'0 0.0
2016-Feb-07 01:25N 35°38' E 139°46'0 0.0
2016-Feb-07 00:31N 35°38' E 139°46'0 0.0
2016-Feb-06 23:33N 35°38' E 139°46'1211.5
2016-Feb-06 22:33N 35°27' E 139°49'1111.1
2016-Feb-06 21:33N 35°16' E 139°47'1515.2
2016-Feb-06 20:34N 35°01' E 139°43'1514.1
2016-Feb-06 19:31N 34°51' E 139°56'1717.9
2016-Feb-06 18:33N 35°00' E 140°14'1818.3
2016-Feb-06 17:33N 35°10' E 140°33'2418.3
2016-Feb-06 16:13N 35°31' E 140°49'  
2016-Feb-02 15:33N 35°18' E 140°41'2019.7
2016-Feb-02 14:33N 35°04' E 140°23'1919.5
2016-Feb-02 13:33N 34°55' E 140°03'1616.4
2016-Feb-02 12:33N 34°57' E 139°43'1817.8
2016-Feb-02 11:34N 35°15' E 139°46'1212.2
2016-Feb-02 10:33N 35°27' E 139°48'1111.4
2016-Feb-02 09:34N 35°38' E 139°46'0 0.0
2016-Feb-02 08:33N 35°38' E 139°46'0 0.0
2016-Feb-02 07:24N 35°38' E 139°46'0 0.1
2016-Feb-02 06:30N 35°38' E 139°46'0 0.0
2016-Feb-02 05:30N 35°38' E 139°46'0 0.0
2016-Feb-02 04:09N 35°38' E 139°46'0 0.1
2016-Feb-02 03:27N 35°38' E 139°46'0 0.1
2016-Feb-02 02:30N 35°38' E 139°46'0 0.0
2016-Feb-02 01:30N 35°38' E 139°46'0 0.0
2016-Feb-02 00:33N 35°38' E 139°46'0 0.1
2016-Feb-01 23:33N 35°38' E 139°46'1211.8
2016-Feb-01 22:33N 35°26' E 139°49'1111.1
2016-Feb-01 21:34N 35°16' E 139°47'1615.5
2016-Feb-01 20:34N 35°01' E 139°41'6816.8
2016-Feb-01 16:29N 34°27' E 138°29'59 1.7
2016-Jan-31 06:33N 34°58' E 139°29'1918.7
2016-Jan-31 05:33N 35°11' E 139°45'1413.7
2016-Jan-31 04:33N 35°25' E 139°44'1312.9
2016-Jan-31 03:34N 35°38' E 139°46'0 0.2
2016-Jan-31 02:30N 35°38' E 139°46'0 0.0
2016-Jan-31 01:33N 35°38' E 139°46'0 0.0
2016-Jan-31 00:33N 35°38' E 139°46'0 0.1
2016-Jan-30 23:33N 35°38' E 139°46'1211.7
2016-Jan-30 22:33N 35°27' E 139°49'1211.5
2016-Jan-30 21:33N 35°15' E 139°47'1716.6
2016-Jan-30 20:33N 34°59' E 139°41'1716.5
2016-Jan-30 19:30N 34°47' E 139°56'1717.9
2016-Jan-30 18:33N 34°57' E 140°13'1918.0
2016-Jan-30 17:31N 35°10' E 140°30'1818.2
2016-Jan-30 16:32N 35°24' E 140°43'1818.4
2016-Jan-30 15:34N 35°39' E 140°54'  

Dump ship's entire track history